createdAt,value
2022-08-16T00:01:24.526Z,2.50
2022-08-16T00:03:53.144Z,2.70
2022-08-16T00:06:20.824Z,3.03
2022-08-16T00:08:48.187Z,3.03
2022-08-16T00:11:16.762Z,2.90
2022-08-16T00:13:53.465Z,2.83
2022-08-16T00:17:06.162Z,2.43
2022-08-16T00:19:41.695Z,2.80
2022-08-16T00:22:13.751Z,2.40
2022-08-16T00:24:46.804Z,2.43
2022-08-16T00:27:15.033Z,3.20
2022-08-16T00:29:42.308Z,2.40
2022-08-16T00:32:11.104Z,2.10
2022-08-16T00:34:43.195Z,2.77
2022-08-16T00:37:20.477Z,2.63
2022-08-16T00:39:56.862Z,2.83
2022-08-16T00:42:31.961Z,2.77
2022-08-16T00:45:25.470Z,2.83
2022-08-16T00:47:55.099Z,2.40
2022-08-16T00:50:36.102Z,2.37
2022-08-16T00:53:06.918Z,3.17
2022-08-16T00:55:38.285Z,3.03
2022-08-16T00:58:13.263Z,3.00
2022-08-16T01:00:45.512Z,2.53
2022-08-16T01:03:30.390Z,2.70
2022-08-16T01:05:59.343Z,2.80
2022-08-16T01:08:35.464Z,2.20
2022-08-16T01:11:05.492Z,2.60
2022-08-16T01:13:36.397Z,2.80
2022-08-16T01:16:10.165Z,2.20
2022-08-16T01:18:47.463Z,2.60
2022-08-16T01:22:47.049Z,2.37
2022-08-16T01:24:57.544Z,2.80
2022-08-16T01:27:36.941Z,2.60
2022-08-16T01:30:28.920Z,2.67
2022-08-16T01:33:14.042Z,2.57
2022-08-16T01:35:54.211Z,2.63
2022-08-16T01:38:35.219Z,2.70
2022-08-16T01:41:29.712Z,2.40
2022-08-16T01:44:00.937Z,3.27
2022-08-16T01:46:46.642Z,2.70
2022-08-16T01:49:20.068Z,3.37
2022-08-16T01:51:57.931Z,2.43
2022-08-16T01:54:30.638Z,2.80
2022-08-16T01:56:59.552Z,2.77
2022-08-16T01:59:27.116Z,2.83
2022-08-16T02:02:00.176Z,3.27
2022-08-16T02:04:40.007Z,3.40
2022-08-16T02:07:18.721Z,3.00
2022-08-16T02:09:58.357Z,3.37
2022-08-16T02:12:49.482Z,3.17
2022-08-16T02:15:25.293Z,2.90
2022-08-16T02:17:58.343Z,3.23
2022-08-16T02:20:28.437Z,3.07
2022-08-16T02:23:05.571Z,3.27
2022-08-16T02:25:51.237Z,2.90
2022-08-16T02:28:23.718Z,3.40
2022-08-16T02:30:52.465Z,2.97
2022-08-16T02:33:24.367Z,3.43
2022-08-16T02:36:14.559Z,3.03
2022-08-16T02:38:57.194Z,3.43
2022-08-16T02:41:24.059Z,3.50
2022-08-16T02:43:53.468Z,2.80
2022-08-16T02:46:20.938Z,3.53
2022-08-16T02:49:01.978Z,3.10
2022-08-16T02:51:29.042Z,3.33
2022-08-16T02:53:58.528Z,3.70
2022-08-16T02:56:25.971Z,3.00
2022-08-16T02:58:59.550Z,3.13
2022-08-16T03:01:36.532Z,3.47
2022-08-16T03:04:39.223Z,3.70
2022-08-16T03:06:56.374Z,3.23
2022-08-16T03:09:25.294Z,3.63
2022-08-16T03:11:56.141Z,3.90
2022-08-16T03:14:24.493Z,3.67
2022-08-16T03:16:59.411Z,3.80
2022-08-16T03:19:47.876Z,4.00
2022-08-16T03:22:28.856Z,3.47
2022-08-16T03:25:04.466Z,3.30
2022-08-16T03:27:38.945Z,3.67
2022-08-16T03:30:16.488Z,3.87
2022-08-16T03:32:47.237Z,3.70
2022-08-16T03:35:18.554Z,3.87
2022-08-16T03:38:01.803Z,3.70
2022-08-16T03:40:33.835Z,3.77
2022-08-16T03:43:20.237Z,4.53
2022-08-16T03:45:49.461Z,3.23
2022-08-16T03:48:21.316Z,4.40
2022-08-16T03:51:08.549Z,3.80
2022-08-16T03:53:38.355Z,4.40
2022-08-16T03:56:07.631Z,4.00
2022-08-16T03:58:45.766Z,5.10
2022-08-16T04:01:15.506Z,5.03
2022-08-16T04:03:43.248Z,4.70
2022-08-16T04:06:11.219Z,5.27
2022-08-16T04:08:39.525Z,5.53
2022-08-16T04:11:07.216Z,6.07
2022-08-16T04:14:00.192Z,5.80
2022-08-16T04:16:27.720Z,5.07
2022-08-16T04:19:02.372Z,5.17
2022-08-16T04:21:32.941Z,5.23
2022-08-16T04:24:00.835Z,6.77
2022-08-16T04:26:30.801Z,6.73
2022-08-16T04:29:14.801Z,6.27
2022-08-16T04:31:56.220Z,5.90
2022-08-16T04:34:28.679Z,5.80
2022-08-16T04:36:57.977Z,5.17
2022-08-16T04:39:36.527Z,5.20
2022-08-16T04:42:15.523Z,5.50
2022-08-16T04:44:53.892Z,5.00
2022-08-16T04:47:31.438Z,5.47
2022-08-16T04:49:59.915Z,4.37
2022-08-16T04:52:35.147Z,5.50
2022-08-16T04:55:15.210Z,6.20
2022-08-16T04:57:43.790Z,6.30
2022-08-16T05:00:32.271Z,5.97
2022-08-16T05:03:11.431Z,6.10
2022-08-16T05:05:45.382Z,5.57
2022-08-16T05:08:30.544Z,5.50
2022-08-16T05:11:03.649Z,4.43
2022-08-16T05:13:41.471Z,4.97
2022-08-16T05:16:27.523Z,5.00
2022-08-16T05:19:00.735Z,4.70
2022-08-16T05:21:38.345Z,4.93
2022-08-16T05:24:07.707Z,4.73
2022-08-16T05:26:42.960Z,5.07
2022-08-16T05:29:15.261Z,5.27
2022-08-16T05:31:47.971Z,4.90
2022-08-16T05:34:21.409Z,4.67
2022-08-16T05:36:51.178Z,5.83
2022-08-16T05:39:20.483Z,5.00
2022-08-16T05:41:48.977Z,5.67
2022-08-16T05:44:23.102Z,6.07
2022-08-16T05:46:56.004Z,4.90
2022-08-16T05:49:24.357Z,5.77
2022-08-16T05:51:54.820Z,5.67
2022-08-16T05:54:24.989Z,5.30
2022-08-16T05:56:54.276Z,5.67
2022-08-16T05:59:24.150Z,5.60
2022-08-16T06:01:52.231Z,5.23
2022-08-16T06:04:34.826Z,5.33
2022-08-16T06:07:09.019Z,5.00
2022-08-16T06:09:51.394Z,4.93
2022-08-16T06:12:26.744Z,5.17
2022-08-16T06:15:04.494Z,4.60
2022-08-16T06:17:43.126Z,5.57
2022-08-16T06:20:23.432Z,5.03
2022-08-16T06:22:59.007Z,5.40
2022-08-16T06:25:35.890Z,5.47
2022-08-16T06:28:09.537Z,4.87
2022-08-16T06:30:43.548Z,5.10
2022-08-16T06:33:22.170Z,4.50
2022-08-16T06:35:55.287Z,5.10
2022-08-16T06:38:33.305Z,4.80
2022-08-16T06:41:06.570Z,4.67
2022-08-16T06:43:41.712Z,5.30
2022-08-16T06:46:31.559Z,4.60
2022-08-16T06:48:59.332Z,5.60
2022-08-16T06:51:48.375Z,5.03
2022-08-16T06:54:14.269Z,5.13
2022-08-16T06:56:42.408Z,5.10
2022-08-16T06:59:10.298Z,5.00
2022-08-16T07:01:46.330Z,5.03
2022-08-16T07:04:31.661Z,5.27
2022-08-16T07:07:01.721Z,5.50
2022-08-16T07:09:30.620Z,5.17
2022-08-16T07:12:03.371Z,5.40
2022-08-16T07:14:31.717Z,5.93
2022-08-16T07:16:59.830Z,4.97
2022-08-16T07:20:04.116Z,6.00
2022-08-16T07:22:37.117Z,4.97
2022-08-16T07:25:11.797Z,5.30
2022-08-16T07:27:40.319Z,4.73
2022-08-16T07:30:46.122Z,5.37
2022-08-16T07:33:00.336Z,5.47
2022-08-16T07:35:27.510Z,5.37
2022-08-16T07:37:54.769Z,4.80
2022-08-16T07:40:36.946Z,4.80
2022-08-16T07:43:09.674Z,4.20
2022-08-16T07:45:36.812Z,5.33
2022-08-16T07:48:11.221Z,4.67
2022-08-16T07:50:56.563Z,5.17
2022-08-16T07:53:31.712Z,4.80
2022-08-16T07:56:00.505Z,5.60
2022-08-16T07:58:33.789Z,4.37
2022-08-16T08:01:11.053Z,4.83
2022-08-16T08:03:48.212Z,4.47
2022-08-16T08:06:22.756Z,4.70
2022-08-16T08:08:57.577Z,5.27
2022-08-16T08:11:28.817Z,5.20
2022-08-16T08:14:03.794Z,5.53
2022-08-16T08:16:32.950Z,5.40
2022-08-16T08:19:02.845Z,4.90
2022-08-16T08:21:56.633Z,4.67
2022-08-16T08:24:21.360Z,5.43
2022-08-16T08:26:50.147Z,4.57
2022-08-16T08:29:23.064Z,5.10
2022-08-16T08:31:52.985Z,4.93
2022-08-16T08:34:21.122Z,4.63
2022-08-16T08:36:54.039Z,4.47
2022-08-16T08:39:21.750Z,4.70
2022-08-16T08:41:49.426Z,5.20
2022-08-16T08:44:28.648Z,5.00
2022-08-16T08:47:04.741Z,4.73
2022-08-16T08:49:46.828Z,5.23
2022-08-16T08:52:35.137Z,4.50
2022-08-16T08:55:11.223Z,4.97
2022-08-16T08:57:46.817Z,4.93
2022-08-16T09:00:18.422Z,4.97
2022-08-16T09:02:52.073Z,4.80
2022-08-16T09:05:22.936Z,5.13
2022-08-16T09:08:05.871Z,5.13
2022-08-16T09:10:33.758Z,4.73
2022-08-16T09:13:01.419Z,5.23
2022-08-16T09:15:32.556Z,4.87
2022-08-16T09:18:26.635Z,5.07
2022-08-16T09:21:00.163Z,4.30
2022-08-16T09:23:36.305Z,4.57
2022-08-16T09:26:44.142Z,4.73
2022-08-16T09:29:15.187Z,5.80
2022-08-16T09:31:42.152Z,5.17
2022-08-16T09:34:10.496Z,4.87
2022-08-16T09:36:45.950Z,5.27
2022-08-16T09:39:15.784Z,4.40
2022-08-16T09:41:54.272Z,4.37
2022-08-16T09:45:10.597Z,4.47
2022-08-16T09:47:13.565Z,4.37
2022-08-16T09:49:41.346Z,4.70
2022-08-16T09:52:10.315Z,4.70
2022-08-16T09:54:44.443Z,4.33
2022-08-16T09:57:12.471Z,4.90
2022-08-16T09:59:41.994Z,5.00
2022-08-16T10:02:23.006Z,5.00
2022-08-16T10:04:56.705Z,5.00
2022-08-16T10:07:38.339Z,5.27
2022-08-16T10:10:31.076Z,4.53
2022-08-16T10:13:16.673Z,5.00
2022-08-16T10:15:55.780Z,4.80
2022-08-16T10:18:54.110Z,4.60
2022-08-16T10:21:17.943Z,5.47
2022-08-16T10:23:46.275Z,4.63
2022-08-16T10:27:18.069Z,5.07
2022-08-16T10:29:01.747Z,4.77
2022-08-16T10:31:43.650Z,4.80
2022-08-16T10:34:30.785Z,4.87
2022-08-16T10:37:00.138Z,4.97
2022-08-16T10:39:40.783Z,4.17
2022-08-16T10:42:13.629Z,4.87
2022-08-16T10:44:42.289Z,5.20
2022-08-16T10:47:10.246Z,5.60
2022-08-16T10:49:39.079Z,4.90
2022-08-16T10:52:17.986Z,5.03
2022-08-16T10:57:33.329Z,5.27
2022-08-16T11:00:22.417Z,5.03
2022-08-16T11:02:57.739Z,4.20
2022-08-16T11:05:59.168Z,4.70
2022-08-16T11:08:17.376Z,5.67
2022-08-16T11:11:04.856Z,5.67
2022-08-16T11:19:12.632Z,4.73
2022-08-16T11:24:40.039Z,5.20
2022-08-16T11:27:19.751Z,5.63
2022-08-16T11:29:52.009Z,5.30
2022-08-16T11:32:20.295Z,4.87
2022-08-16T11:35:11.002Z,4.90
2022-08-16T11:38:24.078Z,5.40
2022-08-16T11:40:32.418Z,6.10
2022-08-16T11:43:01.498Z,5.10
2022-08-16T11:45:33.478Z,5.70
2022-08-16T11:48:05.126Z,5.40
2022-08-16T11:50:33.668Z,5.10
2022-08-16T11:53:05.660Z,5.10
2022-08-16T11:55:38.209Z,5.00
2022-08-16T11:58:08.313Z,4.90
2022-08-16T12:00:51.922Z,5.20
2022-08-16T12:03:31.446Z,5.10
2022-08-16T12:06:11.204Z,5.27
2022-08-16T12:08:57.379Z,5.20
2022-08-16T12:11:28.116Z,6.27
2022-08-16T12:14:04.695Z,5.73
2022-08-16T12:16:34.440Z,5.70
2022-08-16T12:19:04.635Z,5.80
2022-08-16T12:21:36.059Z,6.70
2022-08-16T12:24:20.770Z,5.67
2022-08-16T12:26:48.497Z,6.20
2022-08-16T12:29:16.476Z,5.70
2022-08-16T12:32:00.839Z,5.40
2022-08-16T12:34:30.277Z,5.33
2022-08-16T12:36:58.625Z,5.07
2022-08-16T12:39:29.075Z,4.73
2022-08-16T12:41:56.713Z,4.77
2022-08-16T12:44:26.311Z,5.00
2022-08-16T12:47:17.094Z,4.63
2022-08-16T12:49:44.068Z,4.87
2022-08-16T12:52:33.656Z,4.93
2022-08-16T12:55:00.707Z,3.77
2022-08-16T12:57:36.324Z,4.67
2022-08-16T13:00:26.499Z,4.13
2022-08-16T13:02:54.505Z,4.87
2022-08-16T13:05:22.262Z,4.20
2022-08-16T13:07:51.320Z,5.03
2022-08-16T13:10:37.262Z,4.67
2022-08-16T13:13:06.919Z,5.10
2022-08-16T13:15:51.517Z,5.00
2022-08-16T13:18:32.540Z,4.50
2022-08-16T13:21:00.729Z,3.80
2022-08-16T13:23:27.705Z,5.20
2022-08-16T13:25:57.259Z,4.60
2022-08-16T13:28:24.551Z,4.60
2022-08-16T13:30:55.101Z,4.77
2022-08-16T13:33:37.859Z,4.70
2022-08-16T13:36:17.022Z,4.80
2022-08-16T13:38:53.179Z,4.10
2022-08-16T13:41:21.393Z,3.63
2022-08-16T13:43:55.099Z,4.30
2022-08-16T13:46:25.633Z,4.20
2022-08-16T13:48:53.447Z,3.77
2022-08-16T13:51:23.843Z,3.90
2022-08-16T13:54:02.624Z,4.00
2022-08-16T13:56:36.813Z,4.30
2022-08-16T13:59:13.913Z,4.37
2022-08-16T14:01:55.367Z,4.57
2022-08-16T14:04:27.585Z,4.43
2022-08-16T14:06:57.126Z,4.10
2022-08-16T14:09:25.254Z,4.40
2022-08-16T14:11:54.706Z,3.83
2022-08-16T14:14:28.697Z,3.57
2022-08-16T14:17:01.606Z,3.90
2022-08-16T14:19:30.022Z,4.40
2022-08-16T14:22:14.674Z,4.83
2022-08-16T14:24:47.426Z,3.60
2022-08-16T14:27:21.835Z,4.97
2022-08-16T14:29:50.714Z,4.30
2022-08-16T14:32:33.581Z,4.07
2022-08-16T14:35:08.368Z,4.50
2022-08-16T14:37:38.178Z,3.90
2022-08-16T14:40:08.175Z,3.77
2022-08-16T14:42:36.780Z,4.20
2022-08-16T14:45:10.123Z,4.33
2022-08-16T14:47:38.324Z,3.30
2022-08-16T14:50:09.069Z,3.63
2022-08-16T14:52:58.278Z,3.60
2022-08-16T14:55:27.950Z,4.17
2022-08-16T14:57:55.805Z,3.33
2022-08-16T15:00:33.212Z,4.43
2022-08-16T15:03:09.796Z,4.30
2022-08-16T15:05:39.299Z,4.57
2022-08-16T15:08:06.266Z,4.17
2022-08-16T15:10:37.329Z,4.60
2022-08-16T15:13:09.608Z,4.27
2022-08-16T15:15:38.456Z,4.50
2022-08-16T15:18:11.776Z,4.07
2022-08-16T15:20:41.342Z,3.80
2022-08-16T15:23:10.009Z,4.00
2022-08-16T15:25:44.807Z,4.47
2022-08-16T15:28:30.918Z,6.73
2022-08-16T15:31:03.374Z,4.90
2022-08-16T15:33:35.067Z,9.03
2022-08-16T15:36:04.698Z,4.57
2022-08-16T15:38:56.981Z,4.30
2022-08-16T15:41:49.577Z,4.07
2022-08-16T15:44:22.670Z,4.10
2022-08-16T15:47:00.037Z,4.17
2022-08-16T15:49:37.177Z,4.43
2022-08-16T15:52:24.869Z,4.37
2022-08-16T15:55:13.414Z,4.83
2022-08-16T15:57:51.341Z,4.60
2022-08-16T16:00:20.608Z,4.17
2022-08-16T16:02:49.606Z,4.30
2022-08-16T16:05:16.986Z,3.93
2022-08-16T16:07:56.254Z,3.77
2022-08-16T16:10:29.347Z,4.40
2022-08-16T16:13:00.457Z,4.53
2022-08-16T16:15:32.348Z,3.90
2022-08-16T16:17:59.622Z,3.87
2022-08-16T16:20:39.012Z,3.60
2022-08-16T16:23:10.605Z,3.57
2022-08-16T16:25:44.028Z,5.97
2022-08-16T16:29:05.039Z,5.53
2022-08-16T16:31:09.018Z,6.03
2022-08-16T16:33:39.779Z,4.90
2022-08-16T16:36:08.390Z,4.20
2022-08-16T16:38:35.540Z,4.23
2022-08-16T16:41:09.380Z,4.37
2022-08-16T16:43:40.784Z,4.17
2022-08-16T16:46:43.005Z,4.57
2022-08-16T16:48:56.545Z,4.10
2022-08-16T16:51:24.443Z,4.10
2022-08-16T16:53:56.537Z,4.10
2022-08-16T16:56:32.238Z,4.40
2022-08-16T16:59:07.743Z,4.50
2022-08-16T17:02:00.040Z,4.30
2022-08-16T17:04:32.982Z,4.43
2022-08-16T17:07:01.867Z,4.70
2022-08-16T17:09:29.693Z,4.00
2022-08-16T17:11:58.313Z,4.47
2022-08-16T17:14:33.235Z,4.80
2022-08-16T17:17:06.397Z,5.07
2022-08-16T17:19:40.062Z,3.93
2022-08-16T17:22:14.273Z,3.90
2022-08-16T17:24:50.933Z,4.37
2022-08-16T17:27:33.176Z,4.27
2022-08-16T17:30:19.297Z,4.10
2022-08-16T17:32:56.742Z,4.13
2022-08-16T17:35:40.999Z,4.23
2022-08-16T17:38:10.417Z,4.33
2022-08-16T17:40:47.983Z,4.33
2022-08-16T17:43:33.149Z,4.40
2022-08-16T17:46:01.429Z,4.53
2022-08-16T17:48:31.065Z,4.70
2022-08-16T17:50:59.428Z,5.43
2022-08-16T17:53:26.372Z,4.77
2022-08-16T17:55:54.581Z,5.10
2022-08-16T17:58:24.118Z,4.33
2022-08-16T18:00:55.857Z,4.47
2022-08-16T18:04:08.958Z,4.30
2022-08-16T18:06:28.942Z,4.90
2022-08-16T18:09:02.518Z,4.50
2022-08-16T18:11:33.937Z,4.67
2022-08-16T18:14:00.943Z,4.97
2022-08-16T18:16:27.787Z,4.90
2022-08-16T18:18:54.665Z,4.07
2022-08-16T18:21:40.942Z,4.47
2022-08-16T18:24:09.841Z,4.70
2022-08-16T18:26:37.676Z,4.40
2022-08-16T18:29:05.045Z,4.57
2022-08-16T18:31:32.502Z,4.93
2022-08-16T18:34:01.173Z,4.80
2022-08-16T18:36:28.161Z,4.10
2022-08-16T18:38:55.345Z,4.77
2022-08-16T18:41:25.167Z,4.27
2022-08-16T18:44:22.401Z,4.63
2022-08-16T18:46:45.642Z,5.87
2022-08-16T18:49:17.995Z,5.43
2022-08-16T18:51:45.340Z,5.30
2022-08-16T18:54:17.841Z,5.03
2022-08-16T18:56:55.478Z,4.83
2022-08-16T18:59:27.497Z,5.60
2022-08-16T19:01:55.524Z,5.00
2022-08-16T19:04:47.553Z,5.40
2022-08-16T19:07:15.061Z,5.57
2022-08-16T19:09:41.958Z,5.50
2022-08-16T19:12:09.272Z,4.30
2022-08-16T19:14:36.141Z,5.03
2022-08-16T19:17:03.062Z,5.43
2022-08-16T19:19:29.916Z,4.93
2022-08-16T19:21:57.402Z,5.63
2022-08-16T19:24:28.254Z,5.07
2022-08-16T19:26:57.122Z,5.47
2022-08-16T19:29:24.623Z,5.00
2022-08-16T19:31:51.507Z,5.00
2022-08-16T19:34:18.434Z,5.27
2022-08-16T19:36:45.398Z,5.17
2022-08-16T19:39:15.145Z,5.67
2022-08-16T19:41:53.233Z,5.03
2022-08-16T19:44:22.312Z,5.80
2022-08-16T19:46:49.808Z,5.40
2022-08-16T19:49:17.179Z,5.97
2022-08-16T19:51:45.942Z,4.87
2022-08-16T19:54:12.853Z,5.73
2022-08-16T19:56:39.748Z,4.63
2022-08-16T19:59:40.321Z,4.53
2022-08-16T20:01:53.532Z,5.07
2022-08-16T20:04:22.615Z,5.33
2022-08-16T20:06:52.627Z,5.10
2022-08-16T20:09:21.735Z,5.50
2022-08-16T20:11:49.780Z,5.60
2022-08-16T20:14:24.114Z,6.27
2022-08-16T20:16:57.865Z,6.27
2022-08-16T20:19:27.377Z,6.40
2022-08-16T20:21:56.386Z,6.33
2022-08-16T20:24:34.051Z,6.10
2022-08-16T20:27:03.171Z,7.60
2022-08-16T20:29:30.089Z,8.97
2022-08-16T20:31:56.988Z,7.97
2022-08-16T20:34:23.860Z,10.30
2022-08-16T20:36:50.720Z,7.60
2022-08-16T20:39:17.596Z,6.83
2022-08-16T20:41:44.565Z,6.47
2022-08-16T20:44:12.928Z,9.20
2022-08-16T20:46:40.241Z,15.63
2022-08-16T20:49:09.207Z,5.40
2022-08-16T20:51:49.749Z,6.50
2022-08-16T20:54:18.112Z,5.00
2022-08-16T20:56:45.013Z,5.37
2022-08-16T20:59:11.893Z,5.37
2022-08-16T21:01:46.281Z,4.87
2022-08-16T21:04:23.186Z,5.20
2022-08-16T21:06:52.952Z,4.60
2022-08-16T21:09:20.356Z,5.10
2022-08-16T21:11:53.182Z,5.60
2022-08-16T21:14:20.070Z,5.80
2022-08-16T21:16:46.921Z,5.43
2022-08-16T21:19:13.791Z,5.50
2022-08-16T21:21:40.685Z,5.23
2022-08-16T21:24:07.760Z,5.07
2022-08-16T21:26:39.010Z,5.90
2022-08-16T21:29:11.239Z,5.47
2022-08-16T21:31:42.521Z,5.80
2022-08-16T21:34:09.427Z,6.20
2022-08-16T21:36:36.771Z,6.20
2022-08-16T21:39:06.846Z,6.47
2022-08-16T21:41:35.557Z,6.30
2022-08-16T21:44:02.594Z,5.90
2022-08-16T21:46:29.461Z,6.20
2022-08-16T21:48:56.495Z,6.53
2022-08-16T21:51:23.403Z,7.00
2022-08-16T21:53:50.344Z,7.60
2022-08-16T21:56:17.680Z,8.30
2022-08-16T21:58:53.201Z,7.27
2022-08-16T22:01:24.041Z,6.80
2022-08-16T22:04:09.655Z,6.40
2022-08-16T22:06:40.746Z,5.70
2022-08-16T22:09:09.801Z,6.63
2022-08-16T22:11:37.786Z,6.40
2022-08-16T22:14:05.437Z,6.00
2022-08-16T22:16:36.251Z,7.50
2022-08-16T22:19:04.471Z,6.20
2022-08-16T22:21:32.900Z,6.03
2022-08-16T22:24:00.149Z,6.23
2022-08-16T22:26:30.386Z,5.83
2022-08-16T22:29:04.375Z,6.27
2022-08-16T22:31:31.313Z,5.97
2022-08-16T22:33:58.634Z,6.23
2022-08-16T22:36:28.629Z,5.87
2022-08-16T22:39:05.817Z,6.40
2022-08-16T22:41:35.260Z,6.70
2022-08-16T22:44:04.805Z,6.93
2022-08-16T22:46:34.753Z,8.00
2022-08-16T22:49:02.522Z,10.07
2022-08-16T22:51:30.269Z,10.33
2022-08-16T22:53:58.281Z,10.10
2022-08-16T22:56:25.920Z,9.50
2022-08-16T22:58:53.240Z,7.27
2022-08-16T23:01:23.675Z,6.70
2022-08-16T23:03:51.357Z,6.83
2022-08-16T23:06:18.721Z,5.67
2022-08-16T23:08:45.601Z,6.70
2022-08-16T23:11:20.968Z,6.67
2022-08-16T23:13:57.514Z,6.30
2022-08-16T23:16:34.282Z,6.50
2022-08-16T23:19:05.807Z,6.80
2022-08-16T23:21:33.830Z,7.27
2022-08-16T23:24:01.205Z,7.13
2022-08-16T23:26:44.873Z,7.53
2022-08-16T23:29:23.535Z,7.90
2022-08-16T23:31:57.979Z,7.47
2022-08-16T23:34:27.334Z,8.73
2022-08-16T23:36:54.754Z,8.47
2022-08-16T23:39:22.611Z,8.90
2022-08-16T23:41:49.663Z,8.87
2022-08-16T23:44:42.347Z,8.73
2022-08-16T23:47:05.871Z,8.03
2022-08-16T23:49:56.466Z,7.80
2022-08-16T23:52:53.850Z,6.97
2022-08-16T23:55:07.591Z,6.67
2022-08-16T23:57:34.472Z,6.60
